Altamont, Kansas
Current Conditions -  °F | °C
As of 12:52 PM on Friday 21 Nov 2014 (Local Time) from KPPF Reporting Station
Haze Haze  
Wind Chill: 50°   Ceiling: 1200
Heat Index: 50°   Visibility: 5mi
Dew Point: 48°   Wind: 5mph
Humidity: 93%   Direction: NA
Pressure: 30.1"   Gusts: NA
Location:  37.19°N, 95.3°W
Report Text: KPPF 211852Z AUTO VRB04KT 5SM BR OVC012 10/09 A3010 RMK AO2 RAE1755 SLP197 P0000 T01000089
Loading
Personal Weather Stations






























Interactive Weather Map New forecast layout! Learn more

10-Day Weather Forecast

Advertisements
Track Severe Weather on mobile